createdAt,value
2022-10-23T00:01:45.458Z,99816.47
2022-10-23T00:04:22.093Z,99817.50
2022-10-23T00:06:50.093Z,99811.28
2022-10-23T00:09:22.173Z,99809.88
2022-10-23T00:11:51.258Z,99808.25
2022-10-23T00:14:22.887Z,99801.44
2022-10-23T00:16:50.411Z,99801.44
2022-10-23T00:19:17.470Z,99801.06
2022-10-23T00:21:45.134Z,99796.94
2022-10-23T00:24:12.159Z,99799.03
2022-10-23T00:26:40.491Z,99798.22
2022-10-23T00:29:09.093Z,99790.97
2022-10-23T00:31:37.277Z,99792.84
2022-10-23T00:34:07.917Z,99790.38
2022-10-23T00:36:35.706Z,99793.31
2022-10-23T00:39:03.615Z,99778.44
2022-10-23T00:41:32.226Z,99785.91
2022-10-23T00:44:22.246Z,99772.69
2022-10-23T00:46:49.476Z,99771.06
2022-10-23T00:49:16.722Z,99768.56
2022-10-23T00:51:52.529Z,99775.56
2022-10-23T00:54:25.647Z,99769.38
2022-10-23T00:57:00.222Z,99772.06
2022-10-23T00:59:28.250Z,99778.72
2022-10-23T01:01:55.878Z,99777.09
2022-10-23T01:04:24.578Z,99780.00
2022-10-23T01:07:08.087Z,99767.00
2022-10-23T01:10:22.967Z,99769.75
2022-10-23T01:13:02.233Z,99771.25
2022-10-23T01:15:44.000Z,99771.91
2022-10-23T01:18:27.797Z,99771.50
2022-10-23T01:21:11.999Z,99763.47
2022-10-23T01:24:21.317Z,99747.78
2022-10-23T01:27:00.544Z,99744.06
2022-10-23T01:29:51.671Z,99754.81
2022-10-23T01:32:48.162Z,99763.91
2022-10-23T01:35:34.506Z,99754.81
2022-10-23T01:38:14.666Z,99749.66
2022-10-23T01:40:50.023Z,99753.97
2022-10-23T01:43:30.299Z,99750.47
2022-10-23T01:46:03.045Z,99743.22
2022-10-23T01:48:31.934Z,99729.56
2022-10-23T01:51:04.974Z,99743.00
2022-10-23T01:53:41.163Z,99742.78
2022-10-23T01:56:19.757Z,99732.88
2022-10-23T01:58:50.935Z,99740.94
2022-10-23T02:01:20.268Z,99732.72
2022-10-23T02:03:51.994Z,99729.41
2022-10-23T02:06:19.219Z,99727.19
2022-10-23T02:08:46.753Z,99722.63
2022-10-23T02:11:17.479Z,99716.44
2022-10-23T02:14:05.773Z,99715.38
2022-10-23T02:16:42.533Z,99730.91
2022-10-23T02:19:42.380Z,99727.19
2022-10-23T02:22:30.360Z,99709.59
2022-10-23T02:25:16.795Z,99725.53
2022-10-23T02:27:54.361Z,99728.41
2022-10-23T02:30:24.762Z,99704.03
2022-10-23T02:33:06.376Z,99707.75
2022-10-23T02:35:33.659Z,99711.47
2022-10-23T02:38:40.529Z,99707.81
2022-10-23T02:41:26.847Z,99705.31
2022-10-23T02:44:18.165Z,99713.59
2022-10-23T02:47:09.521Z,99701.81
2022-10-23T02:49:52.983Z,99690.88
2022-10-23T02:52:38.008Z,99681.75
2022-10-23T02:55:10.550Z,99676.38
2022-10-23T02:58:12.485Z,99678.63
2022-10-23T03:00:51.460Z,99670.56
2022-10-23T03:03:49.726Z,99673.00
2022-10-23T03:06:16.970Z,99675.50
2022-10-23T03:09:06.204Z,99657.31
2022-10-23T03:11:33.324Z,99662.69
2022-10-23T03:14:00.613Z,99650.31
2022-10-23T03:16:27.597Z,99651.94
2022-10-23T03:18:55.676Z,99655.69
2022-10-23T03:21:23.211Z,99657.31
2022-10-23T03:23:53.104Z,99656.06
2022-10-23T03:26:27.851Z,99662.50
2022-10-23T03:28:54.887Z,99657.13
2022-10-23T03:31:23.445Z,99651.97
2022-10-23T03:33:55.345Z,99660.28
2022-10-23T03:36:22.415Z,99654.91
2022-10-23T03:38:49.869Z,99662.34
2022-10-23T03:41:16.833Z,99653.69
2022-10-23T03:43:44.062Z,99656.59
2022-10-23T03:46:12.786Z,99649.59
2022-10-23T03:48:39.912Z,99655.19
2022-10-23T03:51:07.007Z,99653.75
2022-10-23T03:53:34.582Z,99653.16
2022-10-23T03:56:04.480Z,99667.03
2022-10-23T03:58:33.520Z,99679.63
2022-10-23T04:01:00.617Z,99668.31
2022-10-23T04:03:27.896Z,99663.38
2022-10-23T04:05:54.871Z,99657.41
2022-10-23T04:08:22.710Z,99669.19
2022-10-23T04:10:55.145Z,99671.28
2022-10-23T04:13:32.206Z,99676.03
2022-10-23T04:15:59.146Z,99673.78
2022-10-23T04:18:26.097Z,99672.16
2022-10-23T04:20:53.973Z,99663.50
2022-10-23T04:23:21.524Z,99661.03
2022-10-23T04:28:24.481Z,99667.91
2022-10-23T04:30:52.227Z,99671.00
2022-10-23T04:33:19.378Z,99658.25
2022-10-23T04:35:49.319Z,99656.00
2022-10-23T04:38:16.739Z,99659.97
2022-10-23T04:40:44.160Z,99657.50
2022-10-23T04:43:11.242Z,99648.81
2022-10-23T04:45:40.136Z,99654.19
2022-10-23T04:48:07.112Z,99643.91
2022-10-23T04:50:57.701Z,99631.53
2022-10-23T04:53:39.156Z,99627.19
2022-10-23T04:56:22.803Z,99629.03
2022-10-23T04:58:54.853Z,99626.81
2022-10-23T05:01:23.854Z,99628.69
2022-10-23T05:03:51.187Z,99628.69
2022-10-23T05:06:18.486Z,99626.00
2022-10-23T05:09:04.130Z,99634.03
2022-10-23T05:11:40.538Z,99667.88
2022-10-23T05:14:09.252Z,99670.34
2022-10-23T05:17:00.660Z,99670.34
2022-10-23T05:19:34.375Z,99647.63
2022-10-23T05:22:02.247Z,99638.53
2022-10-23T05:24:48.257Z,99647.41
2022-10-23T05:27:20.315Z,99645.78
2022-10-23T05:29:47.251Z,99649.06
2022-10-23T05:32:16.702Z,99644.97
2022-10-23T05:34:44.360Z,99650.53
2022-10-23T05:37:14.529Z,99640.59
2022-10-23T05:39:42.838Z,99643.91
2022-10-23T05:42:13.382Z,99627.81
2022-10-23T05:44:41.619Z,99621.63
2022-10-23T05:47:23.758Z,99625.13
2022-10-23T05:50:12.332Z,99618.72
2022-10-23T05:52:55.573Z,99607.97
2022-10-23T05:55:49.140Z,99611.06
2022-10-23T05:58:16.057Z,99598.50
2022-10-23T06:01:13.375Z,99610.50
2022-10-23T06:04:03.696Z,99597.88
2022-10-23T06:06:48.301Z,99603.25
2022-10-23T06:09:16.684Z,99599.97
2022-10-23T06:11:44.467Z,99589.25
2022-10-23T06:14:17.648Z,99587.38
2022-10-23T06:16:44.704Z,99573.38
2022-10-23T06:19:12.846Z,99581.19
2022-10-23T06:21:41.453Z,99575.00
2022-10-23T06:24:10.861Z,99578.75
2022-10-23T06:27:05.122Z,99562.63
2022-10-23T06:29:41.518Z,99563.69
2022-10-23T06:32:08.500Z,99567.38
2022-10-23T06:34:36.263Z,99570.88
2022-10-23T06:37:04.423Z,99559.31
2022-10-23T06:39:40.491Z,99568.44
2022-10-23T06:42:10.673Z,99563.88
2022-10-23T06:45:04.754Z,99574.41
2022-10-23T06:47:40.136Z,99565.50
2022-10-23T06:50:27.093Z,99558.31
2022-10-23T06:52:54.518Z,99565.31
2022-10-23T06:55:22.964Z,99565.31
2022-10-23T06:57:49.989Z,99564.28
2022-10-23T07:00:17.970Z,99564.28
2022-10-23T07:02:52.856Z,99583.66
2022-10-23T07:05:20.242Z,99586.09
2022-10-23T07:07:47.881Z,99580.53
2022-10-23T07:10:19.788Z,99588.38
2022-10-23T07:12:52.485Z,99592.47
2022-10-23T07:15:32.807Z,99584.19
2022-10-23T07:18:00.195Z,99571.16
2022-10-23T07:20:36.636Z,99579.78
2022-10-23T07:23:03.989Z,99580.41
2022-10-23T07:25:37.119Z,99593.38
2022-10-23T07:28:05.063Z,99601.19
2022-10-23T07:30:32.315Z,99595.19
2022-10-23T07:33:01.139Z,99602.78
2022-10-23T07:35:41.906Z,99614.94
2022-10-23T07:38:14.677Z,99611.56
2022-10-23T07:40:45.419Z,99612.44
2022-10-23T07:43:15.392Z,99612.78
2022-10-23T07:45:42.681Z,99591.91
2022-10-23T07:48:19.018Z,99586.91
2022-10-23T07:51:08.003Z,99582.94
2022-10-23T07:53:39.446Z,99598.63
2022-10-23T07:56:29.628Z,99592.78
2022-10-23T07:59:17.709Z,99595.41
2022-10-23T08:01:52.581Z,99608.59
2022-10-23T08:04:23.179Z,99608.75
2022-10-23T08:06:56.788Z,99605.63
2022-10-23T08:09:25.608Z,99596.09
2022-10-23T08:11:52.643Z,99582.00
2022-10-23T08:14:21.708Z,99582.97
2022-10-23T08:16:49.433Z,99571.06
2022-10-23T08:19:16.389Z,99586.66
2022-10-23T08:21:44.929Z,99575.34
2022-10-23T08:24:13.873Z,99580.66
2022-10-23T08:26:43.154Z,99586.75
2022-10-23T08:29:11.127Z,99575.66
2022-10-23T08:31:38.406Z,99568.06
2022-10-23T08:34:15.508Z,99578.03
2022-10-23T08:36:44.743Z,99573.75
2022-10-23T08:39:12.283Z,99574.78
2022-10-23T08:41:52.586Z,99576.94
2022-10-23T08:44:31.982Z,99583.63
2022-10-23T08:47:36.243Z,99583.25
2022-10-23T08:50:38.790Z,99579.63
2022-10-23T08:54:19.309Z,99578.94
2022-10-23T08:56:57.065Z,99561.50
2022-10-23T08:59:46.433Z,99559.72
2022-10-23T09:02:38.299Z,99544.16
2022-10-23T09:05:16.519Z,99535.38
2022-10-23T09:08:22.415Z,99534.91
2022-10-23T09:11:19.074Z,99523.19
2022-10-23T09:13:58.507Z,99537.09
2022-10-23T09:16:54.922Z,99535.78
2022-10-23T09:19:27.082Z,99533.19
2022-10-23T09:21:55.846Z,99514.44
2022-10-23T09:24:25.483Z,99519.34
2022-10-23T09:26:54.337Z,99523.78
2022-10-23T09:29:35.812Z,99528.22
2022-10-23T09:32:07.049Z,99519.41
2022-10-23T09:34:35.069Z,99528.88
2022-10-23T09:37:28.067Z,99537.53
2022-10-23T09:40:29.748Z,99531.78
2022-10-23T09:43:01.882Z,99536.81
2022-10-23T09:45:35.184Z,99546.66
2022-10-23T09:48:13.599Z,99533.56
2022-10-23T09:50:50.479Z,99540.44
2022-10-23T09:53:40.704Z,99543.56
2022-10-23T09:56:33.354Z,99545.63
2022-10-23T09:59:12.189Z,99536.56
2022-10-23T10:02:01.487Z,99531.31
2022-10-23T10:04:51.930Z,99531.50
2022-10-23T10:07:24.888Z,99534.31
2022-10-23T10:09:54.959Z,99530.16
2022-10-23T10:12:37.638Z,99532.44
2022-10-23T10:15:19.963Z,99526.09
2022-10-23T10:18:23.181Z,99519.59
2022-10-23T10:21:05.167Z,99509.88
2022-10-23T10:23:38.287Z,99517.88
2022-10-23T10:26:44.356Z,99532.44
2022-10-23T10:29:43.355Z,99525.41
2022-10-23T10:32:32.166Z,99510.50
2022-10-23T10:35:29.040Z,99505.94
2022-10-23T10:38:27.147Z,99493.81
2022-10-23T10:41:32.466Z,99497.44
2022-10-23T10:44:50.674Z,99479.09
2022-10-23T10:47:41.913Z,99470.25
2022-10-23T10:50:25.438Z,99462.97
2022-10-23T10:53:28.515Z,99454.66
2022-10-23T10:55:59.422Z,99447.94
2022-10-23T10:58:44.564Z,99442.34
2022-10-23T11:01:28.093Z,99445.03
2022-10-23T11:04:22.121Z,99454.28
2022-10-23T11:06:53.842Z,99454.09
2022-10-23T11:09:25.840Z,99468.78
2022-10-23T11:11:52.877Z,99474.25
2022-10-23T11:14:26.506Z,99486.75
2022-10-23T11:17:08.975Z,99490.09
2022-10-23T11:20:23.587Z,99483.09
2022-10-23T11:23:36.751Z,99457.78
2022-10-23T11:26:31.486Z,99447.78
2022-10-23T11:29:13.397Z,99443.50
2022-10-23T11:31:54.902Z,99436.56
2022-10-23T11:34:54.703Z,99436.09
2022-10-23T11:37:24.465Z,99440.47
2022-10-23T11:40:08.489Z,99455.91
2022-10-23T11:42:41.396Z,99454.84
2022-10-23T11:45:36.389Z,99450.03
2022-10-23T11:48:19.068Z,99431.66
2022-10-23T11:50:46.117Z,99426.53
2022-10-23T11:53:33.091Z,99430.88
2022-10-23T11:56:27.567Z,99426.94
2022-10-23T11:58:59.168Z,99434.03
2022-10-23T12:01:45.537Z,99421.91
2022-10-23T12:04:12.661Z,99404.94
2022-10-23T12:06:52.978Z,99393.09
2022-10-23T12:09:36.054Z,99386.13
2022-10-23T12:12:08.688Z,99374.28
2022-10-23T12:14:49.289Z,99378.63
2022-10-23T12:17:25.307Z,99383.56
2022-10-23T12:20:04.391Z,99382.19
2022-10-23T12:22:56.315Z,99379.47
2022-10-23T12:25:56.832Z,99369.16
2022-10-23T12:28:39.824Z,99368.59
2022-10-23T12:31:37.426Z,99349.88
2022-10-23T12:34:28.217Z,99357.47
2022-10-23T12:37:22.526Z,99364.00
2022-10-23T12:39:56.222Z,99368.63
2022-10-23T12:42:26.476Z,99347.19
2022-10-23T12:45:16.515Z,99343.44
2022-10-23T12:47:45.983Z,99349.41
2022-10-23T12:50:33.024Z,99352.13
2022-10-23T12:53:04.370Z,99352.41
2022-10-23T12:55:49.697Z,99334.78
2022-10-23T12:58:27.485Z,99347.00
2022-10-23T13:01:04.760Z,99339.66
2022-10-23T13:03:34.141Z,99336.97
2022-10-23T13:06:02.900Z,99334.81
2022-10-23T13:08:41.889Z,99315.53
2022-10-23T13:11:25.670Z,99312.59
2022-10-23T13:13:56.283Z,99313.94
2022-10-23T13:16:26.556Z,99302.28
2022-10-23T13:18:54.334Z,99294.66
2022-10-23T13:21:26.950Z,99297.38
2022-10-23T13:23:54.479Z,99285.44
2022-10-23T13:26:30.348Z,99296.28
2022-10-23T13:28:58.078Z,99276.19
2022-10-23T13:31:30.518Z,99285.69
2022-10-23T13:34:00.395Z,99295.16
2022-10-23T13:36:31.015Z,99301.69
2022-10-23T13:39:09.044Z,99289.19
2022-10-23T13:41:45.210Z,99285.97
2022-10-23T13:44:15.628Z,99283.81
2022-10-23T13:46:43.489Z,99282.72
2022-10-23T13:49:10.459Z,99279.47
2022-10-23T13:51:47.587Z,99272.97
2022-10-23T13:54:24.829Z,99283.84
2022-10-23T13:56:54.955Z,99264.81
2022-10-23T13:59:22.769Z,99261.28
2022-10-23T14:01:51.502Z,99259.94
2022-10-23T14:04:19.705Z,99250.72
2022-10-23T14:06:46.907Z,99252.91
2022-10-23T14:09:17.360Z,99248.00
2022-10-23T14:11:45.008Z,99243.13
2022-10-23T14:14:12.070Z,99236.63
2022-10-23T14:16:39.051Z,99217.09
2022-10-23T14:19:06.359Z,99240.41
2022-10-23T14:21:33.515Z,99241.50
2022-10-23T14:24:00.448Z,99236.59
2022-10-23T14:26:30.108Z,99230.91
2022-10-23T14:29:00.683Z,99220.59
2022-10-23T14:31:31.495Z,99232.56
2022-10-23T14:34:00.635Z,99223.31
2022-10-23T14:36:38.355Z,99227.38
2022-10-23T14:39:16.050Z,99231.97
2022-10-23T14:41:43.155Z,99235.47
2022-10-23T14:44:10.451Z,99239.22
2022-10-23T14:46:38.253Z,99237.06
2022-10-23T14:49:05.547Z,99233.00
2022-10-23T14:51:34.213Z,99224.59
2022-10-23T14:54:07.331Z,99214.28
2022-10-23T14:56:39.317Z,99219.16
2022-10-23T14:59:07.880Z,99225.94
2022-10-23T15:01:43.872Z,99217.25
2022-10-23T15:04:14.341Z,99222.97
2022-10-23T15:06:41.920Z,99222.69
2022-10-23T15:09:11.362Z,99214.56
2022-10-23T15:11:40.755Z,99217.00
2022-10-23T15:14:07.816Z,99203.19
2022-10-23T15:16:41.034Z,99200.75
2022-10-23T15:19:17.152Z,99211.06
2022-10-23T15:21:47.464Z,99205.38
2022-10-23T15:24:16.195Z,99202.41
2022-10-23T15:26:43.937Z,99197.53
2022-10-23T15:29:12.239Z,99188.84
2022-10-23T15:31:40.914Z,99180.72
2022-10-23T15:34:11.416Z,99185.06
2022-10-23T15:36:38.871Z,99167.22
2022-10-23T15:39:08.893Z,99173.19
2022-10-23T15:41:38.450Z,99157.72
2022-10-23T15:44:08.768Z,99148.81
2022-10-23T15:46:36.175Z,99145.03
2022-10-23T15:49:04.187Z,99147.44
2022-10-23T15:51:31.787Z,99133.63
2022-10-23T15:53:58.842Z,99142.84
2022-10-23T15:56:26.095Z,99151.50
2022-10-23T15:58:53.041Z,99130.91
2022-10-23T16:01:20.578Z,99133.63
2022-10-23T16:03:47.647Z,99139.31
2022-10-23T16:06:17.394Z,99130.66
2022-10-23T16:08:44.805Z,99141.75
2022-10-23T16:11:23.731Z,99143.38
2022-10-23T16:13:51.121Z,99147.44
2022-10-23T16:16:18.630Z,99145.00
2022-10-23T16:18:46.406Z,99140.66
2022-10-23T16:21:26.400Z,99138.47
2022-10-23T16:23:56.536Z,99121.13
2022-10-23T16:26:24.334Z,99121.94
2022-10-23T16:28:56.775Z,99134.94
2022-10-23T16:31:25.118Z,99138.19
2022-10-23T16:33:53.364Z,99117.06
2022-10-23T16:36:21.141Z,99111.38
2022-10-23T16:39:23.230Z,99122.19
2022-10-23T16:42:09.132Z,99102.44
2022-10-23T16:44:47.033Z,99108.91
2022-10-23T16:47:13.981Z,99097.56
2022-10-23T16:49:40.962Z,99086.44
2022-10-23T16:52:08.793Z,99094.00
2022-10-23T16:54:35.745Z,99112.44
2022-10-23T16:57:02.764Z,99099.94
2022-10-23T16:59:29.717Z,99114.06
2022-10-23T17:01:56.720Z,99109.16
2022-10-23T17:04:23.733Z,99114.06
2022-10-23T17:06:50.749Z,99122.19
2022-10-23T17:09:19.245Z,99133.03
2022-10-23T17:11:46.294Z,99146.56
2022-10-23T17:14:20.947Z,99162.28
2022-10-23T17:16:51.227Z,99172.84
2022-10-23T17:19:43.928Z,99178.25
2022-10-23T17:22:12.386Z,99164.47
2022-10-23T17:24:40.942Z,99158.50
2022-10-23T17:27:09.659Z,99178.81
2022-10-23T17:29:36.796Z,99184.50
2022-10-23T17:32:04.077Z,99169.88
2022-10-23T17:34:31.093Z,99164.47
2022-10-23T17:36:58.181Z,99181.53
2022-10-23T17:39:28.817Z,99209.97
2022-10-23T17:41:56.362Z,99237.56
2022-10-23T17:44:23.825Z,99261.41
2022-10-23T17:46:55.213Z,99267.38
2022-10-23T17:49:24.108Z,99289.56
2022-10-23T17:51:57.190Z,99320.97
2022-10-23T17:54:26.564Z,99346.94
2022-10-23T17:56:53.854Z,99400.81
2022-10-23T17:59:20.812Z,99440.81
2022-10-23T18:01:48.984Z,99456.72
2022-10-23T18:04:18.869Z,99439.41
2022-10-23T18:14:29.359Z,99389.75
2022-10-23T18:16:56.078Z,99396.47
2022-10-23T18:19:22.348Z,99360.69
2022-10-23T18:21:48.665Z,99373.31
2022-10-23T18:24:15.579Z,99387.28
2022-10-23T18:26:42.375Z,99398.25
2022-10-23T18:29:15.477Z,99404.94
2022-10-23T18:31:43.023Z,99395.66
2022-10-23T18:34:22.962Z,99375.31
2022-10-23T18:36:52.391Z,99362.47
2022-10-23T18:39:24.081Z,99374.28
2022-10-23T18:41:55.634Z,99346.44
2022-10-23T18:44:25.011Z,99307.94
2022-10-23T18:46:52.831Z,99323.31
2022-10-23T18:49:20.465Z,99342.94
2022-10-23T18:51:49.676Z,99340.72
2022-10-23T18:54:19.465Z,99344.75
2022-10-23T18:56:47.203Z,99349.03
2022-10-23T18:59:18.735Z,99345.78
2022-10-23T19:01:45.758Z,99352.25
2022-10-23T19:04:15.564Z,99348.97
2022-10-23T19:06:42.808Z,99339.25
2022-10-23T19:09:11.968Z,99326.25
2022-10-23T19:11:39.049Z,99323.00
2022-10-23T19:14:06.201Z,99329.69
2022-10-23T19:17:04.445Z,99316.97
2022-10-23T19:19:43.162Z,99328.81
2022-10-23T19:22:12.362Z,99310.97
2022-10-23T19:24:56.230Z,99310.97
2022-10-23T19:27:25.549Z,99305.03
2022-10-23T19:29:54.672Z,99290.47
2022-10-23T19:32:22.459Z,99288.84
2022-10-23T19:34:49.644Z,99302.31
2022-10-23T19:37:16.667Z,99296.94
2022-10-23T19:39:43.660Z,99300.69
2022-10-23T19:42:10.609Z,99306.09
2022-10-23T19:44:37.562Z,99312.31
2022-10-23T19:47:05.726Z,99324.72
2022-10-23T19:49:32.675Z,99320.16
2022-10-23T19:51:59.665Z,99312.88
2022-10-23T19:54:26.718Z,99317.19
2022-10-23T19:56:53.721Z,99309.34
2022-10-23T19:59:20.777Z,99304.75
2022-10-23T20:01:48.853Z,99309.34
2022-10-23T20:04:18.489Z,99308.53
2022-10-23T20:06:46.499Z,99304.75
2022-10-23T20:09:13.496Z,99304.75
2022-10-23T20:11:40.707Z,99314.75
2022-10-23T20:14:07.812Z,99313.13
2022-10-23T20:16:37.456Z,99317.44
2022-10-23T20:19:08.935Z,99327.16
2022-10-23T20:21:37.980Z,99327.75
2022-10-23T20:24:05.788Z,99324.00
2022-10-23T20:26:33.082Z,99327.50
2022-10-23T20:29:00.056Z,99332.66
2022-10-23T20:31:28.101Z,99320.78
2022-10-23T20:33:56.115Z,99321.59
2022-10-23T20:36:24.726Z,99311.59
2022-10-23T20:38:52.021Z,99308.69
2022-10-23T20:41:19.626Z,99308.41
2022-10-23T20:43:46.721Z,99316.53
2022-10-23T20:46:14.245Z,99306.28
2022-10-23T20:48:43.852Z,99315.78
2022-10-23T20:51:18.250Z,99314.69
2022-10-23T20:53:46.375Z,99313.88
2022-10-23T20:56:32.869Z,99332.53
2022-10-23T20:59:10.202Z,99336.59
2022-10-23T21:01:44.973Z,99335.78
2022-10-23T21:04:14.027Z,99334.97
2022-10-23T21:06:57.746Z,99325.78
2022-10-23T21:09:30.472Z,99326.38
2022-10-23T21:11:57.465Z,99329.91
2022-10-23T21:14:24.470Z,99338.81
2022-10-23T21:16:51.456Z,99336.94
2022-10-23T21:19:18.378Z,99342.06
2022-10-23T21:21:45.376Z,99344.75
2022-10-23T21:24:16.907Z,99339.63
2022-10-23T21:26:45.210Z,99337.47
2022-10-23T21:29:18.485Z,99337.22
2022-10-23T21:31:53.575Z,99338.03
2022-10-23T21:34:20.740Z,99333.47
2022-10-23T21:37:11.500Z,99334.28
2022-10-23T21:39:35.050Z,99335.09
2022-10-23T21:42:02.093Z,99323.50
2022-10-23T21:44:29.042Z,99333.47
2022-10-23T21:46:56.043Z,99321.03
2022-10-23T21:49:23.108Z,99331.06
2022-10-23T21:51:50.142Z,99330.31
2022-10-23T21:54:17.069Z,99332.03
2022-10-23T21:56:50.897Z,99315.66
2022-10-23T21:59:22.359Z,99320.84
2022-10-23T22:01:49.976Z,99331.47
2022-10-23T22:04:19.128Z,99330.69
2022-10-23T22:06:48.045Z,99329.09
2022-10-23T22:09:19.229Z,99329.16
2022-10-23T22:11:47.883Z,99316.75
2022-10-23T22:14:14.839Z,99321.09
2022-10-23T22:16:42.149Z,99323.84
2022-10-23T22:19:12.821Z,99328.75
2022-10-23T22:21:40.821Z,99332.34
2022-10-23T22:24:08.947Z,99329.09
2022-10-23T22:26:48.389Z,99333.75
2022-10-23T22:29:21.783Z,99328.34
2022-10-23T22:31:49.761Z,99342.41
2022-10-23T22:34:47.842Z,99353.50
2022-10-23T22:37:12.288Z,99347.28
2022-10-23T22:39:40.107Z,99355.97
2022-10-23T22:42:07.093Z,99359.75
2022-10-23T22:44:34.141Z,99351.06
2022-10-23T22:47:01.085Z,99352.69
2022-10-23T22:49:28.146Z,99349.44
2022-10-23T22:51:55.084Z,99342.41
2022-10-23T22:54:22.041Z,99345.38
2022-10-23T22:56:48.964Z,99342.94
2022-10-23T22:59:15.899Z,99338.84
2022-10-23T23:01:47.070Z,99359.66
2022-10-23T23:04:36.568Z,99364.50
2022-10-23T23:07:09.584Z,99358.03
2022-10-23T23:09:42.333Z,99351.25
2022-10-23T23:12:12.607Z,99351.47
2022-10-23T23:14:40.353Z,99363.91
2022-10-23T23:17:08.793Z,99353.09
2022-10-23T23:19:36.324Z,99353.09
2022-10-23T23:22:03.892Z,99346.88
2022-10-23T23:24:31.977Z,99350.41
2022-10-23T23:26:58.927Z,99346.88
2022-10-23T23:29:28.260Z,99354.78
2022-10-23T23:31:55.280Z,99356.94
2022-10-23T23:34:22.289Z,99350.72
2022-10-23T23:36:49.317Z,99345.06
2022-10-23T23:39:16.790Z,99344.25
2022-10-23T23:41:43.725Z,99347.75
2022-10-23T23:44:10.757Z,99352.91
2022-10-23T23:46:37.879Z,99359.97
2022-10-23T23:49:04.790Z,99364.56
2022-10-23T23:51:31.761Z,99374.53
2022-10-23T23:53:58.726Z,99369.66
2022-10-23T23:56:25.848Z,99373.97
2022-10-23T23:58:52.877Z,99376.94
